Home > Products > Valid Products > TAF

000
FTUS44 KOHX 271100
TAFBNA
TAF
KBNA 271133Z 2712/2812 35009KT P6SM SCT035
      TEMPO 2712/2715 BKN035
     FM271500 36009KT P6SM BKN035
     FM271800 01008KT P6SM SCT040 BKN250
     FM280200 02005KT P6SM OVC100=



000
FTUS44 KOHX 271100
TAFCKV
TAF
KCKV 271133Z 2712/2812 34007KT P6SM SCT035
     FM271500 36008KT P6SM BKN035
     FM271800 01008KT P6SM SCT040 BKN250
     FM280200 02005KT P6SM OVC100=



000
FTUS44 KOHX 270500
TAFCSV
TAF
KCSV 270532Z 2706/2806 35006KT P6SM BKN015 OVC040
     FM271900 01007KT P6SM OVC030=



000
FTUS44 KOHX 270500
TAFBNA
TAF
KBNA 270532Z 2706/2806 33011KT P6SM BKN025 OVC050
     FM270700 35010KT P6SM FEW025 BKN050
     FM271200 01009KT P6SM OVC035=



000
FTUS44 KOHX 270500
TAFCKV
TAF
KCKV 270532Z 2706/2806 35010KT P6SM OVC050
     FM271200 01010KT P6SM OVC035=



000
FTUS44 KOHX 262300
TAFCSV
TAF
KCSV 262320Z 2700/2724 33006KT P6SM BKN040
     FM270300 35005KT P6SM OVC020
     FM271500 01006KT P6SM OVC030=



000
FTUS44 KOHX 262300
TAFCSV
TAF
KCSV 262320Z 2700/2724 33006KT P6SM BKN040
     FM270300 35005KT P6SM OVC020
     FM271500 01006KT P6SM OVC030=



000
FTUS44 KOHX 262300
TAFCKV
TAF
KCKV 262320Z 2700/2724 34012KT P6SM OVC022
     FM271200 01010KT P6SM OVC035=



000
FTUS44 KOHX 262300
TAFBNA
TAF
KBNA 262320Z 2700/2724 33011KT P6SM BKN025 OVC050
     FM271200 01009KT P6SM OVC035=



000
FTUS44 KOHX 262300
TAFCKV
TAF
KCKV 262320Z 2700/2724 34012KT P6SM OVC022
     FM271200 01010KT P6SM OVC035=



000
FTUS44 KOHX 262100 AAA
TAFCKV
TAF AMD
KCKV 262155Z 2622/2718 32011KT P6SM OVC040
      TEMPO 2623/2703 OVC020=



000
FTUS44 KOHX 262100 AAB
TAFBNA
TAF AMD
KBNA 262154Z 2622/2718 31012KT P6SM FEW050 BKN070 BKN250
      TEMPO 2623/2703 OVC025
     FM270500 35010KT P6SM OVC035=



000
FTUS44 KOHX 262100 AAB
TAFBNA
TAF AMD
KBNA 262154Z 2622/2718 31012KT P6SM FEW050 BKN070 BKN250
      TEMPO 2623/2703 OVC025
     FM270500 35010KT P6SM OVC035=



000
FTUS44 KOHX 262000 AAA
TAFBNA
TAF AMD
KBNA 262025Z 2620/2718 32012KT P6SM SCT045 BKN250
     FM262200 34008KT P6SM OVC035
      TEMPO 2623/2703 OVC025
     FM270500 35010KT P6SM OVC035=



000
FTUS44 KOHX 262000 AAA
TAFCSV
TAF AMD
KCSV 262019Z 2620/2718 34005KT P6SM SCT025
      TEMPO 2621/2701 BKN015
     FM270100 33004KT P6SM OVC015
      TEMPO 2706/2710 4SM BR OVC007
     FM271000 35006KT P6SM OVC015=



000
FTUS44 KOHX 261700
TAFCSV
TAF
KCSV 261720Z 2618/2718 34010KT P6SM OVC015
      TEMPO 2618/2620 OVC007
     FM270100 33004KT P6SM OVC007
      TEMPO 2706/2710 4SM BR OVC003
     FM271000 35006KT P6SM OVC007=



000
FTUS44 KOHX 261700
TAFCSV
TAF
KCSV 261720Z 2618/2718 34010KT P6SM OVC015
      TEMPO 2618/2620 OVC007
     FM270100 33004KT P6SM OVC007
      TEMPO 2706/2710 4SM BR OVC003
     FM271000 35006KT P6SM OVC007=



000
FTUS44 KOHX 261700
TAFCKV
TAF
KCKV 261720Z 2618/2718 35009KT P6SM SKC
     FM262200 34010KT P6SM OVC015
     FM270500 36010KT P6SM OVC035=



000
FTUS44 KOHX 261700
TAFBNA
TAF
KBNA 261720Z 2618/2718 01010KT P6SM SCT030 BKN250
     FM262200 34008KT P6SM OVC015
     FM270500 35010KT P6SM OVC035=



000
FTUS44 KOHX 261700
TAFBNA
TAF
KBNA 261720Z 2618/2718 01010KT P6SM SCT030 BKN250
     FM262200 34008KT P6SM OVC015
     FM270500 35010KT P6SM OVC035=



000
FTUS44 KOHX 261700
TAFCKV
TAF
KCKV 261720Z 2618/2718 35009KT P6SM SKC
     FM262200 34010KT P6SM OVC015
     FM270500 36010KT P6SM OVC035=



000
FTUS44 KOHX 261600 AAB
TAFCSV
TAF AMD
KCSV 261608Z 2616/2712 32007KT P6SM OVC008
     FM261700 34006KT P6SM OVC012
     FM270000 33005KT P6SM OVC005=



000
FTUS44 KOHX 261600 AAB
TAFCSV
TAF AMD
KCSV 261608Z 2616/2712 32007KT P6SM OVC008
     FM261700 34006KT P6SM OVC012
     FM270000 33005KT P6SM OVC005=



000
FTUS44 KOHX 261600 AAB
TAFCKV
TAF AMD
KCKV 261607Z 2616/2712 33005KT 5SM HZ SKC
     FM261700 35006KT 6SM HZ OVC035
     FM261900 34008KT P6SM OVC015=



000
FTUS44 KOHX 261600 AAB
TAFCKV
TAF AMD
KCKV 261607Z 2616/2712 33005KT 5SM HZ SKC
     FM261700 35006KT 6SM HZ OVC035
     FM261900 34008KT P6SM OVC015=



000
FTUS44 KOHX 261500 AAB
TAFBNA
TAF AMD
KBNA 261502Z 2615/2712 28006KT P6SM FEW015 SCT200 SCT250
     FM262200 34008KT P6SM OVC015=



000
FTUS44 KOHX 261400 AAA
TAFCKV
TAF AMD
KCKV 261416Z 2614/2712 00000KT 4SM HZ SCT040
     FM261500 35005KT P6SM BKN035
     FM261900 34008KT P6SM OVC015=



000
FTUS44 KOHX 261400 AAA
TAFBNA
TAF AMD
KBNA 261415Z 2614/2712 30003KT 4SM BR FEW004 SCT250
     FM261600 35005KT P6SM BKN050
     FM262200 34008KT P6SM OVC015=



000
FTUS44 KOHX 261400 AAA
TAFBNA
TAF AMD
KBNA 261415Z 2614/2712 30003KT 4SM BR FEW004 SCT250
     FM261600 35005KT P6SM BKN050
     FM262200 34008KT P6SM OVC015=



000
FTUS44 KOHX 261100
TAFBNA
TAF
KBNA 261120Z 2612/2712 34005KT 6SM BR SCT006 BKN080
      TEMPO 2612/2614 4SM BR BKN006
     FM261600 34007KT P6SM BKN050
     FM262200 34008KT P6SM OVC015=



000
FTUS44 KOHX 261100
TAFCSV
TAF
KCSV 261120Z 2612/2712 35005KT 5SM BR SCT007 BKN040
      TEMPO 2612/2616 4SM BR OVC007
     FM261700 34006KT P6SM OVC012
     FM270000 33005KT P6SM OVC005=



000
FTUS44 KOHX 261100
TAFCKV
TAF
KCKV 261120Z 2612/2712 31004KT 6SM BR SCT080
      TEMPO 2612/2614 4SM BR
     FM261600 34007KT P6SM BKN035
     FM261900 34008KT P6SM OVC015=



000
FTUS44 KOHX 261100
TAFCSV
TAF
KCSV 261120Z 2612/2712 35005KT 5SM BR SCT007 BKN040
      TEMPO 2612/2616 4SM BR OVC007
     FM261700 34006KT P6SM OVC012
     FM270000 33005KT P6SM OVC005=



000
FTUS44 KOHX 260800 AAA
TAFCSV
TAF AMD
KCSV 260831Z 2609/2706 35005KT 5SM BR SCT009 OVC040
      TEMPO 2609/2612 5SM -SN BR OVC009
     FM261200 35005KT 5SM BR OVC015
     FM261700 33004KT P6SM OVC012=



000
FTUS44 KOHX 260800 AAA
TAFCSV
TAF AMD
KCSV 260831Z 2609/2706 35005KT 5SM BR SCT009 OVC040
      TEMPO 2609/2612 5SM -SN BR OVC009
     FM261200 35005KT 5SM BR OVC015
     FM261700 33004KT P6SM OVC012=



000
FTUS44 KOHX 260800 AAB
TAFBNA
TAF AMD
KBNA 260822Z 2608/2706 31005KT 6SM BR SCT006 OVC040
      TEMPO 2608/2612 5SM BR BKN006
     FM261300 33007KT P6SM BKN050
     FM262000 34006KT P6SM OVC025=



000
FTUS44 KOHX 260800 AAB
TAFBNA
TAF AMD
KBNA 260822Z 2608/2706 31005KT 6SM BR SCT006 OVC040
      TEMPO 2608/2612 5SM BR BKN006
     FM261300 33007KT P6SM BKN050
     FM262000 34006KT P6SM OVC025=



000
FTUS44 KOHX 260600 AAA
TAFBNA
TAF AMD
KBNA 260619Z 2606/2706 36005KT 5SM -SN BKN015 OVC040
      TEMPO 2606/2608 2SM -SN BR OVC006
     FM260800 31003KT P6SM OVC040
     FM262000 34006KT P6SM OVC025=



000
FTUS44 KOHX 260600 AAA
TAFBNA
TAF AMD
KBNA 260619Z 2606/2706 36005KT 5SM -SN BKN015 OVC040
      TEMPO 2606/2608 2SM -SN BR OVC006
     FM260800 31003KT P6SM OVC040
     FM262000 34006KT P6SM OVC025=



000
FTUS44 KOHX 260500
TAFCSV
TAF
KCSV 260529Z 2606/2706 09004KT 3SM -SN BR OVC020
      TEMPO 2606/2609 1SM -SN BR OVC006
     FM260900 35004KT 3SM BR OVC005
     FM261700 33004KT P6SM OVC012=



000
FTUS44 KOHX 260500
TAFBNA
TAF
KBNA 260529Z 2606/2706 VRB05KT 5SM -SN BKN015 OVC040
      TEMPO 2606/2607 2SM -SN BR BKN010
     FM260800 34003KT 6SM BR OVC025
     FM260900 31003KT P6SM BKN035
     FM262000 34006KT P6SM OVC025=



000
FTUS44 KOHX 260500
TAFCKV
TAF
KCKV 260529Z 2606/2706 05005KT P6SM BKN070
     FM261600 34007KT P6SM BKN035 OVC050
     FM261900 33008KT P6SM OVC020=



000
FTUS44 KOHX 252300
TAFBNA
TAF
KBNA 252331Z 2600/2624 02007KT P6SM SCT035 OVC100
     FM260300 35004KT 6SM -SN OVC015
     FM260500 34003KT 5SM -SN OVC007
     FM260800 34003KT 6SM BR OVC015
     FM261300 33007KT P6SM BKN025=



000
FTUS44 KOHX 252300
TAFCSV
TAF
KCSV 252331Z 2600/2624 09004KT P6SM OVC090
     FM260100 01004KT 4SM -SN OVC012
      TEMPO 2602/2606 1SM -SN BR OVC006
     FM260800 35004KT 4SM BR OVC005
     FM261700 33004KT P6SM OVC012=



000
FTUS44 KOHX 252300
TAFCKV
TAF
KCKV 252331Z 2600/2624 05005KT P6SM BKN100
     FM260400 36005KT P6SM -SN BKN025 OVC050
     FM260600 34006KT P6SM OVC020=



000
FTUS44 KOHX 252300
TAFCKV
TAF
KCKV 252331Z 2600/2624 05005KT P6SM BKN100
     FM260400 36005KT P6SM -SN BKN025 OVC050
     FM260600 34006KT P6SM OVC020=



000
FTUS44 KOHX 252300
TAFCSV
TAF
KCSV 252331Z 2600/2624 09004KT P6SM OVC090
     FM260100 01004KT 4SM -SN OVC012
      TEMPO 2602/2606 1SM -SN BR OVC006
     FM260800 35004KT 4SM BR OVC005
     FM261700 33004KT P6SM OVC012=



000
FTUS44 KOHX 252300
TAFBNA
TAF
KBNA 252331Z 2600/2624 02007KT P6SM SCT035 OVC100
     FM260300 35004KT 6SM -SN OVC015
     FM260500 34003KT 5SM -SN OVC007
     FM260800 34003KT 6SM BR OVC015
     FM261300 33007KT P6SM BKN025=



000
FTUS44 KOHX 251700
TAFCKV
TAF
KCKV 251729Z 2518/2618 09005KT P6SM BKN250
     FM252300 05004KT P6SM SCT040 OVC120
     FM260200 02005KT P6SM -SN BKN015 OVC050
     FM260600 34006KT P6SM OVC020=



000
FTUS44 KOHX 251700
TAFCSV
TAF
KCSV 251729Z 2518/2618 09004KT P6SM OVC150
     FM260100 01004KT 4SM -SN OVC012
      TEMPO 2603/2607 1SM -SN BR OVC005
     FM260900 35004KT 4SM BR OVC005=



000
FTUS44 KOHX 251700
TAFBNA
TAF
KBNA 251729Z 2518/2618 07005KT P6SM SCT035 BKN120
     FM260200 01004KT 3SM -SN BKN007 OVC015
     FM260800 34003KT 5SM BR OVC007
     FM261300 33007KT P6SM BKN025=



000
FTUS44 KOHX 251700
TAFCSV
TAF
KCSV 251729Z 2518/2618 09004KT P6SM OVC150
     FM260100 01004KT 4SM -SN OVC012
      TEMPO 2603/2607 1SM -SN BR OVC005
     FM260900 35004KT 4SM BR OVC005=



000
FTUS44 KOHX 251700
TAFCKV
TAF
KCKV 251729Z 2518/2618 09005KT P6SM BKN250
     FM252300 05004KT P6SM SCT040 OVC120
     FM260200 02005KT P6SM -SN BKN015 OVC050
     FM260600 34006KT P6SM OVC020=



000
FTUS44 KOHX 251700
TAFBNA
TAF
KBNA 251729Z 2518/2618 07005KT P6SM SCT035 BKN120
     FM260200 01004KT 3SM -SN BKN007 OVC015
     FM260800 34003KT 5SM BR OVC007
     FM261300 33007KT P6SM BKN025=



000
FTUS44 KOHX 251100
TAFBNA
TAF
KBNA 251134Z 2512/2612 12004KT P6SM BKN250
     FM252100 05005KT P6SM OVC035
     FM260200 36004KT 4SM -SN BKN007 OVC015
     FM260700 34003KT 5SM BR OVC007=



000
FTUS44 KOHX 251100
TAFCSV
TAF
KCSV 251134Z 2512/2612 09004KT P6SM BKN250
     FM260100 01004KT 4SM -SN OVC012
      TEMPO 2603/2607 2SM -SN BR OVC007
     FM260900 00000KT 4SM BR OVC005=



000
FTUS44 KOHX 250500 AAA
TAFBNA
TAF AMD
KBNA 250527Z 2505/2606 VRB04KT P6SM SCT060
     FM251800 VRB05KT P6SM OVC100
     FM252100 05005KT P6SM OVC035
     FM260100 04004KT 5SM -SN OVC020=



000
FTUS44 KOHX 250500 AAA
TAFCKV
TAF AMD
KCKV 250527Z 2505/2606 VRB03KT P6SM SCT060
     FM252000 VRB04KT P6SM OVC100
     FM252300 05004KT P6SM OVC025
     FM260300 01004KT P6SM -SN OVC020=



000
FTUS44 KOHX 250500
TAFBNA
TAF
KBNA 250522Z 2506/2606 VRB04KT P6SM SCT060
     FM251800 VRB05KT P6SM OVC100
     FM252100 05005KT P6SM OVC035
     FM260300 04004KT P6SM -SN OVC020=



000
FTUS44 KOHX 242300
TAFCKV
TAF
KCKV 242320Z 2500/2524 21005KT P6SM SCT060
     FM251700 VRB04KT P6SM OVC100
     FM252000 05004KT P6SM OVC025=



000
FTUS44 KOHX 241700
TAFCSV
TAF
KCSV 241720Z 2418/2518 25004KT P6SM BKN060=



000
FTUS44 KOHX 241700
TAFCKV
TAF
KCKV 241720Z 2418/2518 21005KT P6SM BKN070=



    US Dept of Commerce
    National Oceanic and Atmospheric Administration
    National Weather Service
    1325 East West Highway
    Silver Spring, MD 20910
    Page Author: NWS Internet Services Team
Disclaimer
Information Quality
Credits
Glossary
Privacy Policy
Freedom of Information Act (FOIA)
About Us
Career Opportunities